Flight Track Log - Related Links

Times and Time Zones

All times are in EDT time to prevent confusion due to time zone crossing. See the N507PD flight status page for this flight to view local times or setup timezone preferences in your user account.

Time Position Orientation Groundspeed Altitude Reporting Facility
EDT Latitude Longitude Course Direction KTS MPH feet Rate Location/Type
Wed 08:45:59 PM 39.3667 -84.5333 303° West 196 226 1,300  Level Cincinnati TRACON
Wed 08:46:23 PM 39.3833 -84.5667 303° West 190 219 2,400 2,714 Climbing Cincinnati TRACON
Wed 08:47:23 PM 39.3833 -84.6500 270° West 250 288 5,100 3,500 Climbing Cincinnati TRACON
Wed 08:48:23 PM 39.4167 -84.7333 297° West 242 278 9,400 3,797 Climbing Cincinnati TRACON
Wed 08:49:31 PM 39.4286 -84.8244 280° West 260 299 13,200 3,415 Climbing Indianapolis Center
Wed 08:50:33 PM 39.4511 -84.9392 284° West 299 344 16,800 3,610 Climbing Indianapolis Center
Wed 08:51:34 PM 39.4494 -85.0425 269° West 285 328 20,600 3,197 Climbing Indianapolis Center
Wed 08:52:35 PM 39.4469 -85.1400 268° West 272 313 23,300 2,585 Climbing Indianapolis Center
Wed 08:53:37 PM 39.4436 -85.2369 267° West 268 308 25,900 2,390 Climbing Indianapolis Center
Wed 08:54:38 PM 39.4400 -85.3322 267° West 265 305 28,200 2,049 Climbing Indianapolis Center
Wed 08:55:40 PM 39.4369 -85.4264 268° West 260 299 30,100 1,854 Climbing Indianapolis Center
Wed 08:56:41 PM 39.4347 -85.5172 268° West 252 290 32,000 1,525 Climbing Indianapolis Center
Wed 08:57:42 PM 39.4322 -85.6078 268° West 250 288 33,200 976 Climbing Indianapolis Center
Wed 08:58:44 PM 39.4289 -85.7022 267° West 261 300 34,000 390 Climbing Indianapolis Center
Wed 08:59:45 PM 39.4258 -85.8031 268° West 276 318 34,000  Level Indianapolis Center
Wed 09:00:46 PM 39.4219 -85.9075 267° West 286 329 34,000  Level Indianapolis Center
Wed 09:01:48 PM 39.4186 -86.0111 268° West 286 329 34,000  Level Indianapolis Center
Wed 09:02:49 PM 39.4142 -86.1308 267° West 283 326 34,000  Level Indianapolis Center
Wed 09:03:50 PM 39.4103 -86.2322 267° West 280 322 34,000  Level Indianapolis Center
Wed 09:04:51 PM 39.4064 -86.3347 267° West 282 325 34,000  Level Indianapolis Center
Wed 09:05:53 PM 39.4019 -86.4369 267° West 282 325 34,000  Level Indianapolis Center
Wed 09:06:54 PM 39.3978 -86.5381 267° West 280 322 34,000  Level Indianapolis Center
Wed 09:07:55 PM 39.3939 -86.6392 267° West 279 321 34,000  Level Indianapolis Center
Wed 09:08:57 PM 39.3903 -86.7392 267° West 277 319 34,000  Level Indianapolis Center
Wed 09:09:58 PM 39.3853 -86.8386 266° West 275 316 34,000 -443 Level Indianapolis Center
Wed 09:10:59 PM 39.3814 -86.9403 267° West 280 322 33,100 -927 Descending Indianapolis Center
Wed 09:12:01 PM 39.3764 -87.0428 266° West 282 325 32,100 -976 Descending Indianapolis Center
Wed 09:13:02 PM 39.3717 -87.1442 267° West 281 323 31,100 -885 Descending Indianapolis Center
Wed 09:14:03 PM 39.3678 -87.2442 267° West 278 320 30,300 -787 Descending Indianapolis Center
Wed 09:15:04 PM 39.3636 -87.3442 267° West 278 320 29,500 -836 Descending Indianapolis Center
Wed 09:16:05 PM 39.3575 -87.4464 266° West 284 327 28,600 -732 Descending Indianapolis Center
Wed 09:17:07 PM 39.3519 -87.5531 266° West 295 339 28,000 -293 Descending Indianapolis Center
Wed 09:18:08 PM 39.3464 -87.6656 266° West 288 331 28,000  Level Indianapolis Center
Wed 09:19:09 PM 39.3414 -87.7689 266° West 286 329 28,000  Level Indianapolis Center
Wed 09:20:32 PM 39.3331 -87.9194 266° West 293 337 28,000  Level Kansas City Center
Wed 09:21:33 PM 39.3281 -88.0239 266° West 294 338 28,000  Level Kansas City Center
Wed 09:22:34 PM 39.3228 -88.1311 266° West 295 339 28,000  Level Kansas City Center
Wed 09:23:37 PM 39.3181 -88.2378 267° West 296 341 28,000  Level Kansas City Center
Wed 09:24:38 PM 39.3117 -88.3464 266° West 298 343 28,000  Level Kansas City Center
Wed 09:25:39 PM 39.3061 -88.4547 266° West 300 345 28,000 -148 Level Kansas City Center
Wed 09:26:40 PM 39.2986 -88.5633 265° West 301 346 27,700 -1,008 Descending Kansas City Center
Wed 09:27:44 PM 39.2911 -88.6683 265° West 301 346 25,900 -1,815 Descending Kansas City Center
Wed 09:29:22 PM 39.2803 -88.8572 266° West 294 338 22,800 -1,820 Descending Indianapolis Center
Wed 09:29:46 PM 39.2772 -88.8961 264° West 291 335 22,200 -1,553 Descending Kansas City Center
Wed 09:30:47 PM 39.2722 -88.9969 266° West 285 328 20,600 -1,574 Descending Kansas City Center
Wed 09:31:48 PM 39.2650 -89.0994 265° West 286 329 19,000 -1,366 Descending Kansas City Center
Wed 09:32:50 PM 39.2572 -89.2119 265° West 302 348 17,800 -1,248 Descending Kansas City Center
Wed 09:33:53 PM 39.2311 -89.3211 253° West 314 361 16,400 -1,523 Descending Kansas City Center
Wed 09:35:00 PM 39.1864 -89.3944 232° Southwest 314 361 14,500 -1,724 Descending FAA TRACON SMA TRACON (SMA)
Wed 09:35:20 PM 39.1733 -89.4344 247° West 315 362 13,900 -1,650 Descending FAA TRACON SMA TRACON (SMA)
Wed 09:35:40 PM 39.1639 -89.4669 249° West 315 362 13,400 -1,350 Descending FAA TRACON SMA TRACON (SMA)
Wed 09:36:00 PM 39.1497 -89.4964 238° Southwest 316 364 13,000 -1,500 Descending FAA TRACON SMA TRACON (SMA)
Wed 09:36:20 PM 39.1300 -89.5322 235° Southwest 319 367 12,400 -1,463 Descending FAA TRACON SMA TRACON (SMA)
Wed 09:36:41 PM 39.1156 -89.5625 238° Southwest 321 369 12,000 -750 Descending FAA TRACON SMA TRACON (SMA)
Wed 09:37:00 PM 39.0997 -89.5900 233° Southwest 316 364 11,900 -154 Descending FAA TRACON SMA TRACON (SMA)
Wed 09:37:20 PM 39.0817 -89.6258 237° Southwest 310 357 11,900  Level FAA TRACON SMA TRACON (SMA)
Wed 09:37:40 PM 39.0681 -89.6553 239° Southwest 312 359 11,900 -150 Level FAA TRACON SMA TRACON (SMA)
Wed 09:38:00 PM 39.0531 -89.6844 236° Southwest 316 364 11,800 -750 Descending FAA TRACON SMA TRACON (SMA)
Wed 09:38:20 PM 39.0358 -89.7211 239° Southwest 314 361 11,400 -1,050 Descending FAA TRACON SMA TRACON (SMA)
Wed 09:38:40 PM 39.0214 -89.7500 237° Southwest 311 358 11,100 -1,024 Descending FAA TRACON SMA TRACON (SMA)
Wed 09:39:01 PM 39.0047 -89.7853 239° Southwest 304 350 10,700 -1,050 Descending FAA TRACON SMA TRACON (SMA)
Wed 09:39:20 PM 38.9906 -89.8122 236° Southwest 297 342 10,400 -1,077 Descending FAA TRACON SMA TRACON (SMA)
Wed 09:39:40 PM 38.9775 -89.8397 239° Southwest 293 337 10,000 -1,050 Descending FAA TRACON SMA TRACON (SMA)
Wed 09:40:00 PM 38.9644 -89.8661 238° Southwest 289 333 9,700 -1,171 Descending FAA TRACON SMA TRACON (SMA)
Wed 09:40:21 PM 38.9478 -89.8992 237° Southwest 285 328 9,200 -1,200 Descending FAA TRACON SMA TRACON (SMA)
Wed 09:40:40 PM 38.9342 -89.9244 235° Southwest 282 325 8,900 -923 Descending FAA TRACON SMA TRACON (SMA)
Wed 09:41:00 PM 38.9225 -89.9500 240° Southwest 275 316 8,600 -1,200 Descending FAA TRACON SMA TRACON (SMA)
Wed 09:41:20 PM 38.9072 -89.9811 238° Southwest 268 308 8,100 -1,200 Descending FAA TRACON SMA TRACON (SMA)
Wed 09:41:40 PM 38.8950 -90.0056 237° Southwest 265 305 7,800 -900 Descending FAA TRACON SMA TRACON (SMA)
Wed 09:42:00 PM 38.8825 -90.0297 236° Southwest 262 302 7,500 -1,200 Descending FAA TRACON SMA TRACON (SMA)
Wed 09:42:20 PM 38.8681 -90.0603 239° Southwest 262 302 7,000 -1,171 Descending FAA TRACON SMA TRACON (SMA)
Wed 09:42:41 PM 38.8567 -90.0844 239° Southwest 260 299 6,700 -1,050 Descending FAA TRACON SMA TRACON (SMA)
Wed 09:43:00 PM 38.8408 -90.1133 235° Southwest 258 297 6,300 -1,077 Descending FAA TRACON SMA TRACON (SMA)
Wed 09:43:20 PM 38.8292 -90.1367 237° Southwest 255 293 6,000 -450 Descending FAA TRACON SMA TRACON (SMA)
Wed 09:43:40 PM 38.8186 -90.1600 240° Southwest 249 287 6,000 -450 Level FAA TRACON SMA TRACON (SMA)
Wed 09:44:00 PM 38.8044 -90.1886 238° Southwest 244 281 5,700 -900 Descending FAA TRACON SMA TRACON (SMA)
Wed 09:44:20 PM 38.7928 -90.2119 237° Southwest 251 289 5,400 -1,050 Descending FAA TRACON SMA TRACON (SMA)
Wed 09:44:40 PM 38.7808 -90.2350 236° Southwest 253 291 5,000 -1,171 Descending FAA TRACON SMA TRACON (SMA)
Wed 09:45:01 PM 38.7675 -90.2631 239° Southwest 244 281 4,600 -1,171 Descending FAA TRACON SMA TRACON (SMA)
Wed 09:45:21 PM 38.7564 -90.2856 238° Southwest 240 276 4,200 -923 Descending FAA TRACON SMA TRACON (SMA)
Wed 09:45:40 PM 38.7456 -90.3067 237° Southwest 235 270 4,000 -462 Descending FAA TRACON SMA TRACON (SMA)
Wed 09:46:00 PM 38.7339 -90.3281 235° Southwest 236 272 3,900 -450 Descending FAA TRACON SMA TRACON (SMA)
Wed 09:46:20 PM 38.7258 -90.3544 249° West 252 290 3,700 -1,171 Descending FAA TRACON SMA TRACON (SMA)
Wed 09:46:41 PM 38.7156 -90.3811 244° Southwest 223 257 3,100 -1,500 Descending FAA TRACON SMA TRACON (SMA)
Wed 09:47:00 PM 38.7056 -90.4025 239° Southwest 225 259 2,700 -923 Descending FAA TRACON SMA TRACON (SMA)
Wed 09:47:20 PM 38.6950 -90.4242 238° Southwest 231 266 2,500 -450 Descending FAA TRACON SMA TRACON (SMA)
Wed 09:47:40 PM 38.6831 -90.4486 238° Southwest 217 250 2,400 -439 Descending FAA TRACON SMA TRACON (SMA)
Wed 09:48:01 PM 38.6753 -90.4669 241° Southwest 196 226 2,200 -750 Descending FAA TRACON SMA TRACON (SMA)
Wed 09:48:20 PM 38.6711 -90.4861 254° West 185 213 1,900 -1,077 Descending FAA TRACON SMA TRACON (SMA)
Wed 09:48:40 PM 38.6686 -90.5081 262° West 165 190 1,500 -900 Descending FAA TRACON SMA TRACON (SMA)
Wed 09:49:00 PM 38.6661 -90.5228 258° West 144 166 1,300 -439 Descending FAA TRACON SMA TRACON (SMA)
Wed 09:49:21 PM 38.6642 -90.5347 258° West 121 139 1,200 -600 Descending FAA TRACON SMA TRACON (SMA)
Wed 09:49:40 PM 38.6619 -90.5489 259° West 106 122 900 -769 Descending FAA TRACON SMA TRACON (SMA)
Wed 09:50:00 PM 38.6600 -90.5603 258° West 108 124 700 -450 Descending FAA TRACON SMA TRACON (SMA)
Wed 09:50:20 PM 38.6586 -90.5686 258° West 107 123 600 -146 Descending FAA TRACON SMA TRACON (SMA)
Wed 09:50:41 PM 38.6586 -90.5686 322° Northwest 107 123 600  Level FAA TRACON SMA TRACON (SMA)

Login

Don't have an account? Register now (free) for customized features, flight alerts, and more!